Terminal Aerodrome Forecast
Issued by NWS Flagstaff, AZ

Home | Current Version | Previous Version | Text Only | Print | Product List | Glossary On
Versions: 1 2 3 4 5 6 7 8 9 10 11 12 13
000
FTUS45 KFGZ 010500
TAFINW
TAF
KINW 010535Z 0106/0206 21008KT P6SM SKC
     FM010800 VRB05KT P6SM SKC
     FM011900 24011G21KT P6SM SKC
     FM020200 23008KT P6SM SKC=

USA.gov is the U.S. government's official web portal to all federal, state and local government web resources and services.